sensor_id;sensor_type;location;lat;lon;timestamp;temperature;humidity
17639;DHT22;8938;53.546;9.954;2023-05-09T00:01:53;16.70;79.90
17639;DHT22;8938;53.546;9.954;2023-05-09T00:04:19;16.70;79.90
17639;DHT22;8938;53.546;9.954;2023-05-09T00:06:45;16.60;79.80
17639;DHT22;8938;53.546;9.954;2023-05-09T00:09:10;16.70;80.00
17639;DHT22;8938;53.546;9.954;2023-05-09T00:11:37;16.60;79.90
17639;DHT22;8938;53.546;9.954;2023-05-09T00:14:02;16.60;80.10
17639;DHT22;8938;53.546;9.954;2023-05-09T00:16:28;16.40;80.20
17639;DHT22;8938;53.546;9.954;2023-05-09T00:18:54;16.30;80.50
17639;DHT22;8938;53.546;9.954;2023-05-09T00:21:20;16.30;80.70
17639;DHT22;8938;53.546;9.954;2023-05-09T00:23:46;16.30;80.60
17639;DHT22;8938;53.546;9.954;2023-05-09T00:26:12;16.20;80.60
17639;DHT22;8938;53.546;9.954;2023-05-09T00:28:37;16.20;80.60
17639;DHT22;8938;53.546;9.954;2023-05-09T00:31:03;16.20;80.60
17639;DHT22;8938;53.546;9.954;2023-05-09T00:33:29;16.20;80.60
17639;DHT22;8938;53.546;9.954;2023-05-09T00:35:54;16.20;80.60
17639;DHT22;8938;53.546;9.954;2023-05-09T00:38:22;16.00;80.40
17639;DHT22;8938;53.546;9.954;2023-05-09T00:40:48;16.20;80.70
17639;DHT22;8938;53.546;9.954;2023-05-09T00:43:13;16.20;80.90
17639;DHT22;8938;53.546;9.954;2023-05-09T00:45:41;16.10;80.90
17639;DHT22;8938;53.546;9.954;2023-05-09T00:48:07;16.10;81.10
17639;DHT22;8938;53.546;9.954;2023-05-09T00:50:32;16.00;81.20
17639;DHT22;8938;53.546;9.954;2023-05-09T00:52:58;16.00;81.30
17639;DHT22;8938;53.546;9.954;2023-05-09T00:55:23;16.00;81.40
17639;DHT22;8938;53.546;9.954;2023-05-09T00:57:49;16.00;81.50
17639;DHT22;8938;53.546;9.954;2023-05-09T01:00:16;16.00;81.40
17639;DHT22;8938;53.546;9.954;2023-05-09T01:02:45;16.00;81.30
17639;DHT22;8938;53.546;9.954;2023-05-09T01:05:15;16.00;81.20
17639;DHT22;8938;53.546;9.954;2023-05-09T01:08:07;16.10;81.20
17639;DHT22;8938;53.546;9.954;2023-05-09T01:11:02;16.20;81.20
17639;DHT22;8938;53.546;9.954;2023-05-09T01:13:51;16.20;81.30
17639;DHT22;8938;53.546;9.954;2023-05-09T01:16:34;16.20;81.20
17639;DHT22;8938;53.546;9.954;2023-05-09T01:19:26;16.10;81.50
17639;DHT22;8938;53.546;9.954;2023-05-09T01:21:55;16.00;81.50
17639;DHT22;8938;53.546;9.954;2023-05-09T01:27:22;16.00;82.30
17639;DHT22;8938;53.546;9.954;2023-05-09T01:29:56;16.10;82.80
17639;DHT22;8938;53.546;9.954;2023-05-09T01:32:25;16.00;83.70
17639;DHT22;8938;53.546;9.954;2023-05-09T01:34:54;15.90;84.20
17639;DHT22;8938;53.546;9.954;2023-05-09T01:37:27;15.80;84.30
17639;DHT22;8938;53.546;9.954;2023-05-09T01:39:55;15.60;85.00
17639;DHT22;8938;53.546;9.954;2023-05-09T01:42:24;15.50;85.70
17639;DHT22;8938;53.546;9.954;2023-05-09T01:44:51;15.50;86.00
17639;DHT22;8938;53.546;9.954;2023-05-09T01:47:18;15.50;86.50
17639;DHT22;8938;53.546;9.954;2023-05-09T01:49:46;15.40;86.70
17639;DHT22;8938;53.546;9.954;2023-05-09T01:52:15;15.40;86.50
17639;DHT22;8938;53.546;9.954;2023-05-09T01:54:42;15.50;86.30
17639;DHT22;8938;53.546;9.954;2023-05-09T01:57:09;15.50;86.30
17639;DHT22;8938;53.546;9.954;2023-05-09T01:59:39;15.50;86.30
17639;DHT22;8938;53.546;9.954;2023-05-09T02:02:05;15.50;86.60
17639;DHT22;8938;53.546;9.954;2023-05-09T02:04:32;15.40;86.80
17639;DHT22;8938;53.546;9.954;2023-05-09T02:06:59;15.40;86.20
17639;DHT22;8938;53.546;9.954;2023-05-09T02:09:26;15.40;86.40
17639;DHT22;8938;53.546;9.954;2023-05-09T02:11:52;15.40;86.70
17639;DHT22;8938;53.546;9.954;2023-05-09T02:14:18;15.50;86.50
17639;DHT22;8938;53.546;9.954;2023-05-09T02:16:43;15.50;86.30
17639;DHT22;8938;53.546;9.954;2023-05-09T02:19:09;15.50;85.90
17639;DHT22;8938;53.546;9.954;2023-05-09T02:21:34;15.50;85.40
17639;DHT22;8938;53.546;9.954;2023-05-09T02:24:00;15.50;85.10
17639;DHT22;8938;53.546;9.954;2023-05-09T02:26:27;15.40;84.80
17639;DHT22;8938;53.546;9.954;2023-05-09T02:28:54;15.30;84.90
17639;DHT22;8938;53.546;9.954;2023-05-09T02:31:21;15.20;85.00
17639;DHT22;8938;53.546;9.954;2023-05-09T02:33:48;15.20;85.00
17639;DHT22;8938;53.546;9.954;2023-05-09T02:36:17;15.20;85.10
17639;DHT22;8938;53.546;9.954;2023-05-09T02:38:44;15.20;85.10
17639;DHT22;8938;53.546;9.954;2023-05-09T02:41:14;15.20;85.30
17639;DHT22;8938;53.546;9.954;2023-05-09T02:43:40;15.10;85.50
17639;DHT22;8938;53.546;9.954;2023-05-09T02:46:06;14.90;86.10
17639;DHT22;8938;53.546;9.954;2023-05-09T02:48:31;14.80;86.30
17639;DHT22;8938;53.546;9.954;2023-05-09T02:50:57;14.80;86.60
17639;DHT22;8938;53.546;9.954;2023-05-09T02:53:23;14.80;87.20
17639;DHT22;8938;53.546;9.954;2023-05-09T02:55:48;14.70;87.50
17639;DHT22;8938;53.546;9.954;2023-05-09T02:58:14;14.60;88.00
17639;DHT22;8938;53.546;9.954;2023-05-09T03:00:40;14.60;88.00
17639;DHT22;8938;53.546;9.954;2023-05-09T03:03:06;14.70;88.00
17639;DHT22;8938;53.546;9.954;2023-05-09T03:05:31;14.70;88.10
17639;DHT22;8938;53.546;9.954;2023-05-09T03:07:57;14.70;88.50
17639;DHT22;8938;53.546;9.954;2023-05-09T03:10:24;14.60;88.60
17639;DHT22;8938;53.546;9.954;2023-05-09T03:12:50;14.70;88.50
17639;DHT22;8938;53.546;9.954;2023-05-09T03:15:16;14.70;88.30
17639;DHT22;8938;53.546;9.954;2023-05-09T03:17:41;14.80;88.40
17639;DHT22;8938;53.546;9.954;2023-05-09T03:20:07;14.80;88.30
17639;DHT22;8938;53.546;9.954;2023-05-09T03:22:34;14.80;89.20
17639;DHT22;8938;53.546;9.954;2023-05-09T03:25:00;14.70;88.70
17639;DHT22;8938;53.546;9.954;2023-05-09T03:27:26;14.60;88.50
17639;DHT22;8938;53.546;9.954;2023-05-09T03:29:51;14.60;88.50
17639;DHT22;8938;53.546;9.954;2023-05-09T03:32:17;14.60;89.00
17639;DHT22;8938;53.546;9.954;2023-05-09T03:34:42;14.60;88.80
17639;DHT22;8938;53.546;9.954;2023-05-09T03:37:08;14.50;88.70
17639;DHT22;8938;53.546;9.954;2023-05-09T03:39:33;14.40;89.00
17639;DHT22;8938;53.546;9.954;2023-05-09T03:41:58;14.40;89.30
17639;DHT22;8938;53.546;9.954;2023-05-09T03:44:24;14.30;89.40
17639;DHT22;8938;53.546;9.954;2023-05-09T03:46:50;14.30;89.70
17639;DHT22;8938;53.546;9.954;2023-05-09T03:49:15;14.20;89.60
17639;DHT22;8938;53.546;9.954;2023-05-09T03:51:41;14.30;89.70
17639;DHT22;8938;53.546;9.954;2023-05-09T03:54:07;14.40;89.40
17639;DHT22;8938;53.546;9.954;2023-05-09T03:56:32;14.30;89.30
17639;DHT22;8938;53.546;9.954;2023-05-09T03:58:58;14.20;89.80
17639;DHT22;8938;53.546;9.954;2023-05-09T04:01:24;14.10;89.80
17639;DHT22;8938;53.546;9.954;2023-05-09T04:03:49;14.10;90.00
17639;DHT22;8938;53.546;9.954;2023-05-09T04:06:16;14.10;90.00
17639;DHT22;8938;53.546;9.954;2023-05-09T04:08:42;14.00;90.10
17639;DHT22;8938;53.546;9.954;2023-05-09T04:11:10;14.00;90.10
17639;DHT22;8938;53.546;9.954;2023-05-09T04:13:35;13.90;90.30
17639;DHT22;8938;53.546;9.954;2023-05-09T04:16:01;14.00;90.30
17639;DHT22;8938;53.546;9.954;2023-05-09T04:18:27;14.00;90.60
17639;DHT22;8938;53.546;9.954;2023-05-09T04:20:52;14.00;90.70
17639;DHT22;8938;53.546;9.954;2023-05-09T04:23:18;13.90;90.70
17639;DHT22;8938;53.546;9.954;2023-05-09T04:25:44;13.90;90.60
17639;DHT22;8938;53.546;9.954;2023-05-09T04:28:09;14.10;90.70
17639;DHT22;8938;53.546;9.954;2023-05-09T04:30:35;14.20;90.50
17639;DHT22;8938;53.546;9.954;2023-05-09T04:33:01;14.30;90.50
17639;DHT22;8938;53.546;9.954;2023-05-09T04:35:26;14.30;90.40
17639;DHT22;8938;53.546;9.954;2023-05-09T04:37:52;14.40;90.30
17639;DHT22;8938;53.546;9.954;2023-05-09T04:40:18;14.20;90.50
17639;DHT22;8938;53.546;9.954;2023-05-09T04:42:43;14.10;90.70
17639;DHT22;8938;53.546;9.954;2023-05-09T04:45:09;14.10;90.80
17639;DHT22;8938;53.546;9.954;2023-05-09T04:47:36;14.10;90.70
17639;DHT22;8938;53.546;9.954;2023-05-09T04:50:01;14.00;90.70
17639;DHT22;8938;53.546;9.954;2023-05-09T04:52:27;14.00;90.80
17639;DHT22;8938;53.546;9.954;2023-05-09T04:54:53;13.90;90.90
17639;DHT22;8938;53.546;9.954;2023-05-09T04:57:18;13.90;91.10
17639;DHT22;8938;53.546;9.954;2023-05-09T04:59:44;13.80;91.10
17639;DHT22;8938;53.546;9.954;2023-05-09T05:02:10;13.90;91.10
17639;DHT22;8938;53.546;9.954;2023-05-09T05:04:35;13.80;91.10
17639;DHT22;8938;53.546;9.954;2023-05-09T05:07:01;13.90;91.20
17639;DHT22;8938;53.546;9.954;2023-05-09T05:09:29;13.90;91.10
17639;DHT22;8938;53.546;9.954;2023-05-09T05:11:55;13.90;91.10
17639;DHT22;8938;53.546;9.954;2023-05-09T05:14:20;13.90;91.20
17639;DHT22;8938;53.546;9.954;2023-05-09T05:16:46;13.70;91.80
17639;DHT22;8938;53.546;9.954;2023-05-09T05:19:11;13.60;91.70
17639;DHT22;8938;53.546;9.954;2023-05-09T05:21:37;13.60;91.80
17639;DHT22;8938;53.546;9.954;2023-05-09T05:24:03;13.70;91.80
17639;DHT22;8938;53.546;9.954;2023-05-09T05:26:28;13.80;91.70
17639;DHT22;8938;53.546;9.954;2023-05-09T05:28:54;13.80;91.60
17639;DHT22;8938;53.546;9.954;2023-05-09T05:31:21;13.70;91.50
17639;DHT22;8938;53.546;9.954;2023-05-09T05:33:47;13.60;91.70
17639;DHT22;8938;53.546;9.954;2023-05-09T05:36:12;13.70;91.70
17639;DHT22;8938;53.546;9.954;2023-05-09T05:38:38;13.80;91.70
17639;DHT22;8938;53.546;9.954;2023-05-09T05:41:03;14.00;91.60
17639;DHT22;8938;53.546;9.954;2023-05-09T05:43:29;14.00;91.60
17639;DHT22;8938;53.546;9.954;2023-05-09T05:45:55;14.00;91.60
17639;DHT22;8938;53.546;9.954;2023-05-09T05:48:20;14.10;91.50
17639;DHT22;8938;53.546;9.954;2023-05-09T05:50:46;14.10;91.50
17639;DHT22;8938;53.546;9.954;2023-05-09T05:53:11;14.10;91.50
17639;DHT22;8938;53.546;9.954;2023-05-09T05:55:37;14.00;91.40
17639;DHT22;8938;53.546;9.954;2023-05-09T05:58:08;13.90;91.70
17639;DHT22;8938;53.546;9.954;2023-05-09T06:00:33;14.00;91.70
17639;DHT22;8938;53.546;9.954;2023-05-09T06:02:59;14.10;91.60
17639;DHT22;8938;53.546;9.954;2023-05-09T06:05:25;14.10;91.70
17639;DHT22;8938;53.546;9.954;2023-05-09T06:07:50;14.10;91.80
17639;DHT22;8938;53.546;9.954;2023-05-09T06:10:16;14.20;91.70
17639;DHT22;8938;53.546;9.954;2023-05-09T06:12:41;14.30;91.70
17639;DHT22;8938;53.546;9.954;2023-05-09T06:15:07;14.40;91.70
17639;DHT22;8938;53.546;9.954;2023-05-09T06:17:33;14.40;91.90
17639;DHT22;8938;53.546;9.954;2023-05-09T06:19:59;14.30;92.00
17639;DHT22;8938;53.546;9.954;2023-05-09T06:22:24;14.30;92.00
17639;DHT22;8938;53.546;9.954;2023-05-09T06:24:50;14.40;91.90
17639;DHT22;8938;53.546;9.954;2023-05-09T06:27:15;14.50;91.90
17639;DHT22;8938;53.546;9.954;2023-05-09T06:29:41;14.60;92.00
17639;DHT22;8938;53.546;9.954;2023-05-09T06:32:06;14.70;92.00
17639;DHT22;8938;53.546;9.954;2023-05-09T06:34:32;14.70;92.00
17639;DHT22;8938;53.546;9.954;2023-05-09T06:36:58;14.70;92.40
17639;DHT22;8938;53.546;9.954;2023-05-09T06:39:24;14.80;92.40
17639;DHT22;8938;53.546;9.954;2023-05-09T06:41:49;14.60;92.60
17639;DHT22;8938;53.546;9.954;2023-05-09T06:44:15;14.70;92.50
17639;DHT22;8938;53.546;9.954;2023-05-09T06:46:40;14.60;92.60
17639;DHT22;8938;53.546;9.954;2023-05-09T06:49:06;14.80;92.60
17639;DHT22;8938;53.546;9.954;2023-05-09T06:51:31;14.80;92.40
17639;DHT22;8938;53.546;9.954;2023-05-09T06:53:57;14.90;92.40
17639;DHT22;8938;53.546;9.954;2023-05-09T06:56:23;15.00;92.30
17639;DHT22;8938;53.546;9.954;2023-05-09T06:58:50;15.10;92.00
17639;DHT22;8938;53.546;9.954;2023-05-09T07:01:15;15.20;92.10
17639;DHT22;8938;53.546;9.954;2023-05-09T07:03:42;15.30;91.90
17639;DHT22;8938;53.546;9.954;2023-05-09T07:06:07;15.60;91.90
17639;DHT22;8938;53.546;9.954;2023-05-09T07:08:33;15.80;91.70
17639;DHT22;8938;53.546;9.954;2023-05-09T07:11:00;15.90;91.30
17639;DHT22;8938;53.546;9.954;2023-05-09T07:13:26;16.10;91.30
17639;DHT22;8938;53.546;9.954;2023-05-09T07:15:52;16.20;91.20
17639;DHT22;8938;53.546;9.954;2023-05-09T07:18:17;16.30;91.20
17639;DHT22;8938;53.546;9.954;2023-05-09T07:20:43;16.20;91.00
17639;DHT22;8938;53.546;9.954;2023-05-09T07:23:09;16.20;91.20
17639;DHT22;8938;53.546;9.954;2023-05-09T07:25:34;16.20;91.00
17639;DHT22;8938;53.546;9.954;2023-05-09T07:28:00;16.30;91.10
17639;DHT22;8938;53.546;9.954;2023-05-09T07:30:25;16.40;91.00
17639;DHT22;8938;53.546;9.954;2023-05-09T07:32:51;16.60;91.10
17639;DHT22;8938;53.546;9.954;2023-05-09T07:35:18;16.70;90.90
17639;DHT22;8938;53.546;9.954;2023-05-09T07:37:45;16.70;90.70
17639;DHT22;8938;53.546;9.954;2023-05-09T07:40:10;16.70;90.70
17639;DHT22;8938;53.546;9.954;2023-05-09T07:42:36;16.80;90.70
17639;DHT22;8938;53.546;9.954;2023-05-09T07:45:04;16.90;90.70
17639;DHT22;8938;53.546;9.954;2023-05-09T07:47:31;17.00;90.80
17639;DHT22;8938;53.546;9.954;2023-05-09T07:49:56;17.20;90.50
17639;DHT22;8938;53.546;9.954;2023-05-09T07:52:24;17.40;90.50
17639;DHT22;8938;53.546;9.954;2023-05-09T07:54:50;17.50;90.40
17639;DHT22;8938;53.546;9.954;2023-05-09T07:57:15;17.80;90.40
17639;DHT22;8938;53.546;9.954;2023-05-09T07:59:41;18.00;90.30
17639;DHT22;8938;53.546;9.954;2023-05-09T08:02:07;18.00;90.10
17639;DHT22;8938;53.546;9.954;2023-05-09T08:04:32;18.20;90.40
17639;DHT22;8938;53.546;9.954;2023-05-09T08:06:58;18.20;90.30
17639;DHT22;8938;53.546;9.954;2023-05-09T08:09:23;18.40;90.00
17639;DHT22;8938;53.546;9.954;2023-05-09T08:11:50;18.70;89.90
17639;DHT22;8938;53.546;9.954;2023-05-09T08:14:16;18.60;89.30
17639;DHT22;8938;53.546;9.954;2023-05-09T08:16:41;18.50;88.80
17639;DHT22;8938;53.546;9.954;2023-05-09T08:19:07;18.50;89.20
17639;DHT22;8938;53.546;9.954;2023-05-09T08:21:33;18.40;88.50
17639;DHT22;8938;53.546;9.954;2023-05-09T08:23:59;18.40;89.10
17639;DHT22;8938;53.546;9.954;2023-05-09T08:26:26;18.40;89.20
17639;DHT22;8938;53.546;9.954;2023-05-09T08:28:51;18.40;89.10
17639;DHT22;8938;53.546;9.954;2023-05-09T08:31:18;18.50;89.30
17639;DHT22;8938;53.546;9.954;2023-05-09T08:33:44;18.50;89.30
17639;DHT22;8938;53.546;9.954;2023-05-09T08:36:09;18.60;89.20
17639;DHT22;8938;53.546;9.954;2023-05-09T08:38:35;18.70;89.40
17639;DHT22;8938;53.546;9.954;2023-05-09T08:41:01;19.00;89.40
17639;DHT22;8938;53.546;9.954;2023-05-09T08:43:27;19.00;88.90
17639;DHT22;8938;53.546;9.954;2023-05-09T08:45:56;19.10;88.90
17639;DHT22;8938;53.546;9.954;2023-05-09T08:48:23;19.20;88.80
17639;DHT22;8938;53.546;9.954;2023-05-09T08:50:49;19.30;88.90
17639;DHT22;8938;53.546;9.954;2023-05-09T08:53:15;19.40;88.90
17639;DHT22;8938;53.546;9.954;2023-05-09T08:55:41;19.60;88.00
17639;DHT22;8938;53.546;9.954;2023-05-09T08:58:07;19.70;87.00
17639;DHT22;8938;53.546;9.954;2023-05-09T09:00:34;19.80;86.60
17639;DHT22;8938;53.546;9.954;2023-05-09T09:03:01;20.00;87.10
17639;DHT22;8938;53.546;9.954;2023-05-09T09:05:30;20.40;87.10
17639;DHT22;8938;53.546;9.954;2023-05-09T09:07:57;20.60;86.10
17639;DHT22;8938;53.546;9.954;2023-05-09T09:10:25;20.60;85.60
17639;DHT22;8938;53.546;9.954;2023-05-09T09:12:55;21.00;85.00
17639;DHT22;8938;53.546;9.954;2023-05-09T09:15:22;21.00;84.40
17639;DHT22;8938;53.546;9.954;2023-05-09T09:17:53;20.90;84.10
17639;DHT22;8938;53.546;9.954;2023-05-09T09:20:22;21.50;84.80
17639;DHT22;8938;53.546;9.954;2023-05-09T09:22:51;23.60;84.70
17639;DHT22;8938;53.546;9.954;2023-05-09T09:25:22;25.50;79.60
17639;DHT22;8938;53.546;9.954;2023-05-09T09:27:48;27.00;75.00
17639;DHT22;8938;53.546;9.954;2023-05-09T09:30:14;27.80;71.60
17639;DHT22;8938;53.546;9.954;2023-05-09T09:32:39;28.60;71.70
17639;DHT22;8938;53.546;9.954;2023-05-09T09:35:07;29.50;70.70
17639;DHT22;8938;53.546;9.954;2023-05-09T09:37:34;30.30;69.10
17639;DHT22;8938;53.546;9.954;2023-05-09T09:40:00;30.90;66.80
17639;DHT22;8938;53.546;9.954;2023-05-09T09:42:32;30.90;64.00
17639;DHT22;8938;53.546;9.954;2023-05-09T09:45:16;30.70;63.00
17639;DHT22;8938;53.546;9.954;2023-05-09T09:47:43;30.50;63.30
17639;DHT22;8938;53.546;9.954;2023-05-09T09:50:13;30.40;62.90
17639;DHT22;8938;53.546;9.954;2023-05-09T09:52:53;30.30;62.60
17639;DHT22;8938;53.546;9.954;2023-05-09T09:55:21;30.30;62.50
17639;DHT22;8938;53.546;9.954;2023-05-09T09:57:47;30.60;63.10
17639;DHT22;8938;53.546;9.954;2023-05-09T10:00:14;30.50;61.30
17639;DHT22;8938;53.546;9.954;2023-05-09T10:02:54;30.40;61.20
17639;DHT22;8938;53.546;9.954;2023-05-09T10:05:27;30.40;61.60
17639;DHT22;8938;53.546;9.954;2023-05-09T10:08:01;30.30;60.80
17639;DHT22;8938;53.546;9.954;2023-05-09T10:10:32;30.30;60.00
17639;DHT22;8938;53.546;9.954;2023-05-09T10:13:02;29.70;59.70
17639;DHT22;8938;53.546;9.954;2023-05-09T10:15:29;29.00;61.00
17639;DHT22;8938;53.546;9.954;2023-05-09T10:17:57;28.90;62.30
17639;DHT22;8938;53.546;9.954;2023-05-09T10:20:24;28.80;62.10
17639;DHT22;8938;53.546;9.954;2023-05-09T10:22:55;29.20;62.20
17639;DHT22;8938;53.546;9.954;2023-05-09T10:25:31;29.10;60.50
17639;DHT22;8938;53.546;9.954;2023-05-09T10:27:59;29.00;60.90
17639;DHT22;8938;53.546;9.954;2023-05-09T10:30:35;28.90;61.50
17639;DHT22;8938;53.546;9.954;2023-05-09T10:33:04;28.80;61.00
17639;DHT22;8938;53.546;9.954;2023-05-09T10:35:36;28.40;61.20
17639;DHT22;8938;53.546;9.954;2023-05-09T10:38:06;27.90;62.00
17639;DHT22;8938;53.546;9.954;2023-05-09T10:40:33;27.40;61.90
17639;DHT22;8938;53.546;9.954;2023-05-09T10:42:58;26.80;62.80
17639;DHT22;8938;53.546;9.954;2023-05-09T10:45:24;26.60;64.50
17639;DHT22;8938;53.546;9.954;2023-05-09T10:47:51;26.50;64.40
17639;DHT22;8938;53.546;9.954;2023-05-09T10:50:18;26.10;63.40
17639;DHT22;8938;53.546;9.954;2023-05-09T10:58:18;24.70;65.80
17639;DHT22;8938;53.546;9.954;2023-05-09T11:00:45;24.50;66.30
17639;DHT22;8938;53.546;9.954;2023-05-09T11:03:11;24.50;66.70
17639;DHT22;8938;53.546;9.954;2023-05-09T11:05:40;24.50;66.80
17639;DHT22;8938;53.546;9.954;2023-05-09T11:08:27;24.40;67.10
17639;DHT22;8938;53.546;9.954;2023-05-09T11:10:54;24.40;67.00
17639;DHT22;8938;53.546;9.954;2023-05-09T11:13:22;24.40;67.00
17639;DHT22;8938;53.546;9.954;2023-05-09T11:18:28;24.40;67.30
17639;DHT22;8938;53.546;9.954;2023-05-09T11:20:55;24.70;67.10
17639;DHT22;8938;53.546;9.954;2023-05-09T11:23:25;24.60;65.80
17639;DHT22;8938;53.546;9.954;2023-05-09T11:25:51;24.50;65.70
17639;DHT22;8938;53.546;9.954;2023-05-09T11:28:31;24.60;65.90
17639;DHT22;8938;53.546;9.954;2023-05-09T11:31:10;24.40;65.80
17639;DHT22;8938;53.546;9.954;2023-05-09T11:33:37;24.50;66.00
17639;DHT22;8938;53.546;9.954;2023-05-09T11:39:08;24.70;66.30
17639;DHT22;8938;53.546;9.954;2023-05-09T11:41:42;24.80;65.80
17639;DHT22;8938;53.546;9.954;2023-05-09T11:44:15;24.60;65.60
17639;DHT22;8938;53.546;9.954;2023-05-09T11:46:41;24.60;66.60
17639;DHT22;8938;53.546;9.954;2023-05-09T11:49:07;24.50;66.30
17639;DHT22;8938;53.546;9.954;2023-05-09T11:51:35;24.60;66.10
17639;DHT22;8938;53.546;9.954;2023-05-09T11:54:03;24.80;66.00
17639;DHT22;8938;53.546;9.954;2023-05-09T11:56:30;24.90;65.40
17639;DHT22;8938;53.546;9.954;2023-05-09T11:58:56;25.00;65.10
17639;DHT22;8938;53.546;9.954;2023-05-09T12:01:22;25.10;65.10
17639;DHT22;8938;53.546;9.954;2023-05-09T12:03:48;25.10;65.10
17639;DHT22;8938;53.546;9.954;2023-05-09T12:06:18;25.20;64.80
17639;DHT22;8938;53.546;9.954;2023-05-09T12:08:44;25.40;64.90
17639;DHT22;8938;53.546;9.954;2023-05-09T12:11:11;25.30;64.80
17639;DHT22;8938;53.546;9.954;2023-05-09T12:13:54;25.30;65.30
17639;DHT22;8938;53.546;9.954;2023-05-09T12:16:20;25.30;64.30
17639;DHT22;8938;53.546;9.954;2023-05-09T12:18:49;25.50;64.60
17639;DHT22;8938;53.546;9.954;2023-05-09T12:21:17;25.50;63.60
17639;DHT22;8938;53.546;9.954;2023-05-09T12:23:44;25.50;63.70
17639;DHT22;8938;53.546;9.954;2023-05-09T12:26:10;25.80;63.80
17639;DHT22;8938;53.546;9.954;2023-05-09T12:28:36;25.70;63.90
17639;DHT22;8938;53.546;9.954;2023-05-09T12:31:04;25.70;63.90
17639;DHT22;8938;53.546;9.954;2023-05-09T12:33:30;25.90;63.80
17639;DHT22;8938;53.546;9.954;2023-05-09T12:36:09;25.90;63.60
17639;DHT22;8938;53.546;9.954;2023-05-09T12:38:35;25.80;63.60
17639;DHT22;8938;53.546;9.954;2023-05-09T12:41:08;25.90;64.00
17639;DHT22;8938;53.546;9.954;2023-05-09T12:43:37;25.90;64.10
17639;DHT22;8938;53.546;9.954;2023-05-09T12:46:06;26.00;64.40
17639;DHT22;8938;53.546;9.954;2023-05-09T12:48:38;25.90;63.30
17639;DHT22;8938;53.546;9.954;2023-05-09T12:51:05;25.70;64.00
17639;DHT22;8938;53.546;9.954;2023-05-09T12:53:39;25.60;64.10
17639;DHT22;8938;53.546;9.954;2023-05-09T12:56:16;25.60;63.50
17639;DHT22;8938;53.546;9.954;2023-05-09T12:58:53;25.70;64.20
17639;DHT22;8938;53.546;9.954;2023-05-09T13:01:21;25.80;64.50
17639;DHT22;8938;53.546;9.954;2023-05-09T13:04:02;25.90;63.70
17639;DHT22;8938;53.546;9.954;2023-05-09T13:06:27;25.80;63.30
17639;DHT22;8938;53.546;9.954;2023-05-09T13:09:01;25.90;63.20
17639;DHT22;8938;53.546;9.954;2023-05-09T13:11:27;25.60;63.40
17639;DHT22;8938;53.546;9.954;2023-05-09T13:13:54;25.60;62.90
17639;DHT22;8938;53.546;9.954;2023-05-09T13:16:20;25.60;63.80
17639;DHT22;8938;53.546;9.954;2023-05-09T13:18:46;25.60;64.10
17639;DHT22;8938;53.546;9.954;2023-05-09T13:21:11;25.50;65.00
17639;DHT22;8938;53.546;9.954;2023-05-09T13:23:37;25.80;65.30
17639;DHT22;8938;53.546;9.954;2023-05-09T13:26:03;26.00;64.40
17639;DHT22;8938;53.546;9.954;2023-05-09T13:28:28;25.90;64.00
17639;DHT22;8938;53.546;9.954;2023-05-09T13:30:53;25.90;64.00
17639;DHT22;8938;53.546;9.954;2023-05-09T13:33:19;25.60;63.30
17639;DHT22;8938;53.546;9.954;2023-05-09T13:35:45;25.40;65.00
17639;DHT22;8938;53.546;9.954;2023-05-09T13:38:11;25.20;65.10
17639;DHT22;8938;53.546;9.954;2023-05-09T13:40:37;25.20;66.20
17639;DHT22;8938;53.546;9.954;2023-05-09T13:43:02;25.00;64.80
17639;DHT22;8938;53.546;9.954;2023-05-09T13:45:28;24.90;66.30
17639;DHT22;8938;53.546;9.954;2023-05-09T13:47:53;24.90;65.90
17639;DHT22;8938;53.546;9.954;2023-05-09T13:50:19;24.80;64.70
17639;DHT22;8938;53.546;9.954;2023-05-09T13:52:44;24.70;63.60
17639;DHT22;8938;53.546;9.954;2023-05-09T13:55:10;24.60;64.80
17639;DHT22;8938;53.546;9.954;2023-05-09T13:57:36;24.60;65.60
17639;DHT22;8938;53.546;9.954;2023-05-09T14:00:02;24.70;66.50
17639;DHT22;8938;53.546;9.954;2023-05-09T14:02:28;24.70;66.50
17639;DHT22;8938;53.546;9.954;2023-05-09T14:04:55;24.60;66.80
17639;DHT22;8938;53.546;9.954;2023-05-09T14:07:20;24.60;66.30
17639;DHT22;8938;53.546;9.954;2023-05-09T14:09:46;24.70;66.60
17639;DHT22;8938;53.546;9.954;2023-05-09T14:12:12;24.70;66.60
17639;DHT22;8938;53.546;9.954;2023-05-09T14:14:37;24.80;65.50
17639;DHT22;8938;53.546;9.954;2023-05-09T14:17:03;24.60;66.10
17639;DHT22;8938;53.546;9.954;2023-05-09T14:19:28;24.60;67.10
17639;DHT22;8938;53.546;9.954;2023-05-09T14:21:54;24.70;66.60
17639;DHT22;8938;53.546;9.954;2023-05-09T14:24:21;24.60;66.90
17639;DHT22;8938;53.546;9.954;2023-05-09T14:26:47;24.50;66.70
17639;DHT22;8938;53.546;9.954;2023-05-09T14:29:12;24.50;67.20
17639;DHT22;8938;53.546;9.954;2023-05-09T14:31:38;24.40;66.90
17639;DHT22;8938;53.546;9.954;2023-05-09T14:34:03;24.50;67.10
17639;DHT22;8938;53.546;9.954;2023-05-09T14:36:30;24.60;68.10
17639;DHT22;8938;53.546;9.954;2023-05-09T14:38:56;24.70;67.10
17639;DHT22;8938;53.546;9.954;2023-05-09T14:41:22;24.60;66.30
17639;DHT22;8938;53.546;9.954;2023-05-09T14:43:48;24.40;66.30
17639;DHT22;8938;53.546;9.954;2023-05-09T14:46:14;24.40;66.90
17639;DHT22;8938;53.546;9.954;2023-05-09T14:48:39;24.40;67.50
17639;DHT22;8938;53.546;9.954;2023-05-09T14:51:05;24.50;65.60
17639;DHT22;8938;53.546;9.954;2023-05-09T14:53:31;24.50;66.50
17639;DHT22;8938;53.546;9.954;2023-05-09T14:55:56;24.70;66.50
17639;DHT22;8938;53.546;9.954;2023-05-09T14:58:22;24.50;65.40
17639;DHT22;8938;53.546;9.954;2023-05-09T15:00:48;24.40;66.30
17639;DHT22;8938;53.546;9.954;2023-05-09T15:03:13;24.50;65.60
17639;DHT22;8938;53.546;9.954;2023-05-09T15:05:39;24.40;66.20
17639;DHT22;8938;53.546;9.954;2023-05-09T15:08:05;24.40;66.40
17639;DHT22;8938;53.546;9.954;2023-05-09T15:10:32;24.40;66.50
17639;DHT22;8938;53.546;9.954;2023-05-09T15:12:58;24.50;64.70
17639;DHT22;8938;53.546;9.954;2023-05-09T15:15:25;24.40;64.70
17639;DHT22;8938;53.546;9.954;2023-05-09T15:17:52;24.20;65.90
17639;DHT22;8938;53.546;9.954;2023-05-09T15:20:18;24.10;66.50
17639;DHT22;8938;53.546;9.954;2023-05-09T15:22:44;24.10;65.60
17639;DHT22;8938;53.546;9.954;2023-05-09T15:25:10;24.10;66.10
17639;DHT22;8938;53.546;9.954;2023-05-09T15:27:36;24.10;65.30
17639;DHT22;8938;53.546;9.954;2023-05-09T15:30:03;24.10;64.90
17639;DHT22;8938;53.546;9.954;2023-05-09T15:32:28;24.10;66.00
17639;DHT22;8938;53.546;9.954;2023-05-09T15:34:54;24.10;66.30
17639;DHT22;8938;53.546;9.954;2023-05-09T15:37:19;24.00;66.20
17639;DHT22;8938;53.546;9.954;2023-05-09T15:39:45;24.10;65.50
17639;DHT22;8938;53.546;9.954;2023-05-09T15:42:11;24.00;65.80
17639;DHT22;8938;53.546;9.954;2023-05-09T15:44:41;24.10;65.50
17639;DHT22;8938;53.546;9.954;2023-05-09T15:47:09;24.00;65.00
17639;DHT22;8938;53.546;9.954;2023-05-09T15:49:35;23.90;64.90
17639;DHT22;8938;53.546;9.954;2023-05-09T15:52:07;23.70;64.70
17639;DHT22;8938;53.546;9.954;2023-05-09T15:54:35;23.70;65.10
17639;DHT22;8938;53.546;9.954;2023-05-09T15:57:02;23.60;67.20
17639;DHT22;8938;53.546;9.954;2023-05-09T15:59:28;23.70;66.60